createdAt,value
2024-02-15T00:03:47.484Z,39.5
2024-02-15T00:08:54.096Z,39.5
2024-02-15T00:14:00.426Z,39.5
2024-02-15T00:19:06.732Z,39.5
2024-02-15T00:24:13.209Z,39.5
2024-02-15T00:29:19.574Z,39.5
2024-02-15T00:34:26.031Z,39.5
2024-02-15T00:39:32.472Z,39.5
2024-02-15T00:44:38.771Z,39.5
2024-02-15T00:49:45.226Z,39.5
2024-02-15T00:54:51.593Z,39.5
2024-02-15T00:59:58.038Z,39.5
2024-02-15T01:05:04.422Z,39.5
2024-02-15T01:10:10.900Z,39.5
2024-02-15T01:15:17.188Z,39.5
2024-02-15T01:20:23.740Z,39.5
2024-02-15T01:25:30.042Z,39.5
2024-02-15T01:30:36.470Z,39.5
2024-02-15T01:35:42.842Z,39.5
2024-02-15T01:40:49.256Z,39.5
2024-02-15T01:45:55.718Z,39.5
2024-02-15T01:51:02.240Z,39.5
2024-02-15T01:56:08.723Z,39.5
2024-02-15T02:01:15.053Z,39.5
2024-02-15T02:06:21.746Z,39.5
2024-02-15T02:11:27.387Z,39.5
2024-02-15T02:16:32.657Z,39.5
2024-02-15T02:21:38.329Z,39.5
2024-02-15T02:26:44.825Z,39.5
2024-02-15T02:31:51.113Z,39.5
2024-02-15T02:36:57.578Z,39.5
2024-02-15T02:42:04.024Z,39.5
2024-02-15T02:47:10.357Z,39.5
2024-02-15T02:52:16.614Z,39.5
2024-02-15T02:57:23.026Z,39.5
2024-02-15T03:02:29.513Z,39.5
2024-02-15T03:07:35.966Z,39.5
2024-02-15T03:12:42.425Z,39.5
2024-02-15T03:17:48.762Z,39.5
2024-02-15T03:22:55.091Z,39.5
2024-02-15T03:28:01.509Z,39.5
2024-02-15T03:33:08.025Z,39.5
2024-02-15T03:38:14.326Z,39.5
2024-02-15T03:43:20.790Z,39.5
2024-02-15T03:48:27.169Z,39.5
2024-02-15T03:53:33.571Z,39.5
2024-02-15T03:58:39.998Z,39.5
2024-02-15T04:03:46.398Z,39.5
2024-02-15T04:08:52.813Z,39.5
2024-02-15T04:13:59.281Z,39.5
2024-02-15T04:19:05.644Z,39.5
2024-02-15T04:24:12.089Z,39.5
2024-02-15T04:29:18.778Z,39.5
2024-02-15T04:34:24.247Z,40
2024-02-15T04:39:29.689Z,40
2024-02-15T04:44:36.274Z,40
2024-02-15T04:49:42.603Z,40
2024-02-15T04:54:48.977Z,40
2024-02-15T04:59:55.389Z,40
2024-02-15T05:05:01.761Z,40
2024-02-15T05:10:08.183Z,40
2024-02-15T05:15:14.710Z,40
2024-02-15T05:20:21.026Z,40
2024-02-15T05:25:27.470Z,40
2024-02-15T05:30:33.829Z,40
2024-02-15T05:35:40.240Z,40
2024-02-15T05:40:46.656Z,40
2024-02-15T05:45:53.219Z,40
2024-02-15T05:50:59.473Z,39.5
2024-02-15T05:56:05.930Z,39.5
2024-02-15T06:01:12.409Z,39.5
2024-02-15T06:06:18.728Z,39.5
2024-02-15T06:11:25.137Z,39.5
2024-02-15T06:16:31.505Z,39.5
2024-02-15T06:21:37.815Z,39.5
2024-02-15T06:26:44.130Z,39.5
2024-02-15T06:31:50.438Z,39.5
2024-02-15T06:36:56.777Z,39.5
2024-02-15T06:42:03.148Z,39.5
2024-02-15T06:47:09.491Z,39.5
2024-02-15T06:52:15.069Z,39.5
2024-02-15T06:57:20.590Z,39.5
2024-02-15T07:02:27.093Z,39.5
2024-02-15T07:07:33.480Z,40
2024-02-15T07:12:39.816Z,40
2024-02-15T07:17:45.290Z,39.5
2024-02-15T07:22:51.589Z,39.5
2024-02-15T07:27:57.890Z,39.5
2024-02-15T07:33:04.288Z,39.5
2024-02-15T07:38:10.511Z,39.5
2024-02-15T07:43:16.758Z,39.5
2024-02-15T07:48:23.185Z,39.5
2024-02-15T07:53:29.368Z,39.5
2024-02-15T07:58:35.856Z,39.5
2024-02-15T08:03:42.034Z,39.5
2024-02-15T08:08:48.409Z,39.5
2024-02-15T08:13:54.606Z,39.5
2024-02-15T08:19:00.902Z,39
2024-02-15T08:24:07.276Z,39
2024-02-15T08:29:13.524Z,39
2024-02-15T08:34:19.818Z,39
2024-02-15T08:39:26.160Z,39
2024-02-15T08:44:32.526Z,39
2024-02-15T08:49:39.055Z,39
2024-02-15T08:54:45.080Z,38.5
2024-02-15T08:59:51.391Z,38.5
2024-02-15T09:04:57.700Z,38.5
2024-02-15T09:10:04.165Z,38.5
2024-02-15T09:15:10.389Z,38.5
2024-02-15T09:20:16.665Z,38.5
2024-02-15T09:25:23.088Z,38.5
2024-02-15T09:30:28.610Z,38.5
2024-02-15T09:35:35.035Z,38.5
2024-02-15T09:40:41.530Z,38.5
2024-02-15T09:45:47.888Z,38.5
2024-02-15T09:50:54.213Z,38.5
2024-02-15T09:55:59.619Z,38.5
2024-02-15T10:01:05.929Z,38
2024-02-15T10:06:12.243Z,38
2024-02-15T10:11:18.548Z,38
2024-02-15T10:16:24.863Z,38
2024-02-15T10:21:31.291Z,38
2024-02-15T10:26:37.453Z,38
2024-02-15T10:31:44.064Z,38
2024-02-15T10:36:50.080Z,38
2024-02-15T10:41:56.390Z,38
2024-02-15T10:47:02.878Z,38
2024-02-15T10:52:08.989Z,38
2024-02-15T10:57:15.302Z,38
2024-02-15T11:02:21.604Z,38
2024-02-15T11:07:27.956Z,38
2024-02-15T11:12:34.296Z,38
2024-02-15T11:17:40.519Z,38
2024-02-15T11:22:47.066Z,38
2024-02-15T11:27:53.147Z,38
2024-02-15T11:32:59.570Z,38
2024-02-15T11:38:05.961Z,38
2024-02-15T11:43:12.047Z,38.5
2024-02-15T11:48:18.488Z,38.5
2024-02-15T11:53:24.686Z,38.5
2024-02-15T11:58:30.968Z,38
2024-02-15T12:03:37.429Z,38
2024-02-15T12:08:42.843Z,38
2024-02-15T12:13:49.154Z,37.5
2024-02-15T12:18:55.457Z,37.5
2024-02-15T12:24:01.770Z,37.5
2024-02-15T12:29:08.121Z,37.5
2024-02-15T12:34:14.589Z,37
2024-02-15T12:39:20.708Z,37
2024-02-15T12:44:26.972Z,37.5
2024-02-15T12:49:33.283Z,37.5
2024-02-15T12:54:39.671Z,38
2024-02-15T12:59:45.904Z,38
2024-02-15T13:04:52.251Z,38
2024-02-15T13:09:58.567Z,38.5
2024-02-15T13:15:04.811Z,38.5
2024-02-15T13:20:11.341Z,38.5
2024-02-15T13:25:17.424Z,38.5
2024-02-15T13:30:23.860Z,38.5
2024-02-15T13:35:30.043Z,39
2024-02-15T13:40:36.359Z,39
2024-02-15T13:45:42.657Z,39
2024-02-15T13:50:48.957Z,39
2024-02-15T13:55:55.266Z,39
2024-02-15T14:01:01.592Z,39
2024-02-15T14:06:07.865Z,39
2024-02-15T14:11:14.183Z,39
2024-02-15T14:16:20.637Z,39
2024-02-15T14:21:26.198Z,39
2024-02-15T14:26:32.606Z,39
2024-02-15T14:31:37.990Z,39
2024-02-15T14:36:44.305Z,39
2024-02-15T14:41:50.591Z,39.5
2024-02-15T14:46:57.048Z,39.5
2024-02-15T14:52:03.216Z,39.5
2024-02-15T14:57:09.521Z,39.5
2024-02-15T15:02:15.826Z,39.5
2024-02-15T15:07:22.303Z,39.5
2024-02-15T15:12:28.534Z,39.5
2024-02-15T15:17:34.824Z,39.5
2024-02-15T15:22:41.056Z,39.5
2024-02-15T15:27:47.391Z,39.5
2024-02-15T15:32:53.668Z,39.5
2024-02-15T15:37:59.970Z,39.5
2024-02-15T15:43:06.273Z,40
2024-02-15T15:48:12.575Z,40
2024-02-15T15:53:18.895Z,40
2024-02-15T15:58:25.191Z,40
2024-02-15T16:03:31.504Z,40
2024-02-15T16:08:37.813Z,40
2024-02-15T16:13:44.111Z,40
2024-02-15T16:18:50.420Z,40
2024-02-15T16:23:56.734Z,40
2024-02-15T16:29:03.056Z,40
2024-02-15T16:34:09.343Z,40
2024-02-15T16:39:15.762Z,40
2024-02-15T16:44:21.341Z,40.5
2024-02-15T16:49:27.037Z,40.5
2024-02-15T16:54:33.345Z,40.5
2024-02-15T16:59:39.839Z,40.5
2024-02-15T17:04:45.347Z,40.5
2024-02-15T17:09:51.816Z,40.5
2024-02-15T17:14:58.387Z,40.5
2024-02-15T17:20:04.872Z,40.5
2024-02-15T17:25:11.305Z,40.5
2024-02-15T17:30:16.824Z,40.5
2024-02-15T17:35:22.401Z,40.5
2024-02-15T17:40:28.852Z,40.5
2024-02-15T17:45:35.383Z,40.5
2024-02-15T17:50:41.938Z,40.5
2024-02-15T17:55:48.324Z,40.5
2024-02-15T18:00:54.771Z,40.5
2024-02-15T18:06:01.343Z,40.5
2024-02-15T18:11:07.700Z,40.5
2024-02-15T18:16:14.183Z,40.5
2024-02-15T18:21:20.587Z,40.5
2024-02-15T18:26:26.198Z,40.5
2024-02-15T18:31:31.855Z,40.5
2024-02-15T18:36:38.280Z,40.5
2024-02-15T18:41:44.950Z,40.5
2024-02-15T18:46:51.178Z,40.5
2024-02-15T18:51:56.838Z,41
2024-02-15T18:57:02.378Z,41
2024-02-15T19:02:07.850Z,41
2024-02-15T19:07:14.266Z,41
2024-02-15T19:12:20.686Z,41
2024-02-15T19:17:27.099Z,41
2024-02-15T19:22:33.509Z,41
2024-02-15T19:27:39.928Z,41
2024-02-15T19:32:46.341Z,41
2024-02-15T19:37:52.810Z,41
2024-02-15T19:42:59.191Z,41
2024-02-15T19:48:05.946Z,41
2024-02-15T19:53:12.353Z,41
2024-02-15T19:58:18.697Z,41
2024-02-15T20:03:25.031Z,41
2024-02-15T20:08:31.441Z,41
2024-02-15T20:13:37.657Z,41
2024-02-15T20:18:44.146Z,41
2024-02-15T20:23:50.494Z,41
2024-02-15T20:28:56.945Z,41
2024-02-15T20:34:03.499Z,41
2024-02-15T20:39:10.057Z,41
2024-02-15T20:44:16.464Z,41
2024-02-15T20:49:22.849Z,41
2024-02-15T20:54:29.325Z,41
2024-02-15T20:59:35.658Z,41
2024-02-15T21:04:41.906Z,41
2024-02-15T21:09:48.655Z,41
2024-02-15T21:14:53.928Z,41
2024-02-15T21:20:00.663Z,41
2024-02-15T21:25:07.120Z,41
2024-02-15T21:30:13.502Z,41
2024-02-15T21:35:20.098Z,41
2024-02-15T21:40:25.601Z,41
2024-02-15T21:45:32.008Z,41
2024-02-15T21:50:38.356Z,41
2024-02-15T21:55:44.505Z,41
2024-02-15T22:00:51.114Z,41
2024-02-15T22:05:57.554Z,41
2024-02-15T22:11:04.014Z,41
2024-02-15T22:16:10.396Z,41
2024-02-15T22:21:16.791Z,41
2024-02-15T22:26:23.312Z,41
2024-02-15T22:31:29.746Z,41
2024-02-15T22:36:36.145Z,41
2024-02-15T22:41:42.498Z,41
2024-02-15T22:46:48.964Z,41
2024-02-15T22:51:55.400Z,41
2024-02-15T22:57:01.896Z,41
2024-02-15T23:02:07.888Z,41
2024-02-15T23:07:14.312Z,41
2024-02-15T23:12:20.713Z,41
2024-02-15T23:17:27.122Z,41
2024-02-15T23:22:33.549Z,41
2024-02-15T23:27:39.953Z,41
2024-02-15T23:32:46.378Z,41
2024-02-15T23:37:52.789Z,41
2024-02-15T23:42:59.203Z,41
2024-02-15T23:48:05.753Z,41
2024-02-15T23:53:11.336Z,41
2024-02-15T23:58:16.805Z,41
